createdAt,value
2022-08-16T00:01:41.792Z,65.41
2022-08-16T00:04:09.670Z,65.47
2022-08-16T00:06:39.433Z,65.54
2022-08-16T00:09:07.048Z,65.69
2022-08-16T00:11:33.957Z,65.76
2022-08-16T00:14:01.470Z,65.56
2022-08-16T00:17:06.337Z,65.61
2022-08-16T00:19:41.345Z,65.59
2022-08-16T00:22:13.482Z,65.59
2022-08-16T00:24:44.812Z,65.70
2022-08-16T00:27:14.233Z,65.83
2022-08-16T00:29:41.402Z,65.65
2022-08-16T00:32:10.930Z,65.76
2022-08-16T00:34:43.869Z,66.17
2022-08-16T00:37:16.923Z,66.23
2022-08-16T00:39:45.019Z,66.33
2022-08-16T00:42:30.296Z,66.16
2022-08-16T00:45:35.491Z,66.85
2022-08-16T00:48:30.679Z,66.48
2022-08-16T00:50:55.377Z,66.67
2022-08-16T00:53:23.094Z,66.65
2022-08-16T00:55:55.143Z,66.62
2022-08-16T00:58:34.389Z,66.53
2022-08-16T01:01:08.514Z,66.66
2022-08-16T01:03:41.543Z,66.83
2022-08-16T01:06:40.459Z,66.84
2022-08-16T01:09:00.473Z,66.96
2022-08-16T01:11:29.507Z,67.17
2022-08-16T01:14:09.213Z,67.27
2022-08-16T01:16:36.763Z,67.41
2022-08-16T01:19:20.047Z,67.40
2022-08-16T01:22:49.631Z,67.76
2022-08-16T01:24:55.022Z,67.71
2022-08-16T01:27:29.263Z,67.77
2022-08-16T01:30:21.774Z,68.31
2022-08-16T01:33:02.971Z,67.49
2022-08-16T01:35:52.799Z,67.19
2022-08-16T01:38:25.886Z,67.28
2022-08-16T01:41:06.103Z,67.59
2022-08-16T01:43:36.633Z,67.36
2022-08-16T01:46:37.389Z,67.13
2022-08-16T01:48:59.890Z,67.28
2022-08-16T01:51:29.942Z,67.41
2022-08-16T01:53:56.754Z,67.65
2022-08-16T01:56:25.522Z,67.83
2022-08-16T01:58:58.735Z,68.16
2022-08-16T02:01:28.369Z,68.12
2022-08-16T02:03:58.390Z,68.17
2022-08-16T02:06:34.620Z,68.20
2022-08-16T02:09:06.133Z,68.04
2022-08-16T02:11:47.600Z,67.96
2022-08-16T02:14:26.223Z,67.64
2022-08-16T02:16:54.144Z,67.51
2022-08-16T02:19:21.316Z,67.33
2022-08-16T02:22:08.492Z,67.44
2022-08-16T02:24:42.258Z,67.74
2022-08-16T02:27:13.126Z,67.69
2022-08-16T02:29:42.005Z,67.87
2022-08-16T02:32:49.308Z,67.83
2022-08-16T02:34:59.917Z,67.67
2022-08-16T02:37:51.222Z,67.97
2022-08-16T02:40:19.264Z,67.93
2022-08-16T02:42:50.796Z,67.78
2022-08-16T02:45:24.837Z,67.55
2022-08-16T02:48:01.421Z,67.75
2022-08-16T02:51:06.819Z,67.85
2022-08-16T02:53:29.363Z,68.08
2022-08-16T02:55:56.719Z,67.75
2022-08-16T02:58:25.182Z,67.69
2022-08-16T03:00:55.665Z,67.89
2022-08-16T03:03:24.804Z,68.23
2022-08-16T03:05:52.407Z,68.21
2022-08-16T03:08:52.270Z,68.37
2022-08-16T03:11:16.798Z,68.43
2022-08-16T03:13:56.665Z,68.09
2022-08-16T03:16:38.789Z,68.00
2022-08-16T03:19:09.086Z,67.81
2022-08-16T03:21:38.023Z,67.77
2022-08-16T03:24:28.875Z,67.90
2022-08-16T03:26:59.473Z,68.09
2022-08-16T03:29:33.636Z,68.64
2022-08-16T03:32:03.372Z,69.20
2022-08-16T03:34:34.898Z,68.90
2022-08-16T03:37:02.195Z,69.54
2022-08-16T03:39:29.273Z,69.27
2022-08-16T03:41:59.816Z,69.36
2022-08-16T03:44:43.635Z,68.94
2022-08-16T03:47:18.838Z,68.92
2022-08-16T03:49:51.717Z,68.50
2022-08-16T03:52:23.382Z,68.52
2022-08-16T03:54:57.498Z,68.37
2022-08-16T03:57:31.998Z,69.03
2022-08-16T04:00:20.811Z,69.00
2022-08-16T04:03:07.332Z,68.95
2022-08-16T04:05:44.176Z,68.67
2022-08-16T04:08:22.852Z,68.65
2022-08-16T04:10:54.133Z,68.68
2022-08-16T04:13:48.543Z,68.90
2022-08-16T04:16:27.459Z,69.31
2022-08-16T04:19:02.217Z,68.96
2022-08-16T04:21:32.375Z,68.39
2022-08-16T04:24:00.302Z,68.40
2022-08-16T04:26:31.224Z,68.31
2022-08-16T04:29:15.019Z,68.70
2022-08-16T04:31:56.797Z,69.48
2022-08-16T04:34:32.847Z,69.62
2022-08-16T04:37:01.320Z,69.27
2022-08-16T04:39:37.045Z,68.92
2022-08-16T04:42:17.407Z,68.20
2022-08-16T04:44:54.510Z,67.76
2022-08-16T04:47:31.602Z,67.51
2022-08-16T04:50:00.647Z,67.42
2022-08-16T04:52:34.009Z,67.78
2022-08-16T04:55:15.927Z,68.15
2022-08-16T04:57:44.293Z,68.02
2022-08-16T05:00:30.376Z,67.92
2022-08-16T05:03:07.661Z,67.75
2022-08-16T05:05:45.282Z,67.72
2022-08-16T05:08:28.218Z,68.30
2022-08-16T05:11:01.340Z,68.79
2022-08-16T05:13:40.862Z,69.07
2022-08-16T05:16:20.272Z,69.01
2022-08-16T05:18:50.465Z,68.85
2022-08-16T05:21:17.333Z,68.58
2022-08-16T05:23:58.465Z,68.34
2022-08-16T05:26:30.685Z,68.11
2022-08-16T05:29:00.188Z,68.06
2022-08-16T05:31:30.589Z,68.34
2022-08-16T05:34:00.200Z,68.57
2022-08-16T05:36:36.495Z,68.79
2022-08-16T05:39:09.447Z,68.86
2022-08-16T05:41:45.227Z,68.92
2022-08-16T05:44:23.393Z,69.21
2022-08-16T05:46:59.982Z,68.97
2022-08-16T05:49:38.919Z,68.66
2022-08-16T05:52:11.276Z,69.02
2022-08-16T05:54:46.799Z,69.05
2022-08-16T05:57:17.198Z,69.41
2022-08-16T05:59:45.474Z,69.58
2022-08-16T06:02:13.246Z,69.82
2022-08-16T06:04:44.934Z,70.15
2022-08-16T06:07:24.598Z,70.42
2022-08-16T06:09:56.086Z,70.17
2022-08-16T06:12:27.491Z,69.99
2022-08-16T06:15:04.238Z,69.63
2022-08-16T06:17:42.533Z,69.51
2022-08-16T06:20:23.243Z,69.48
2022-08-16T06:22:59.063Z,69.28
2022-08-16T06:25:36.008Z,69.14
2022-08-16T06:28:08.796Z,68.95
2022-08-16T06:30:43.977Z,68.91
2022-08-16T06:33:22.466Z,68.49
2022-08-16T06:35:55.292Z,68.48
2022-08-16T06:38:32.794Z,68.24
2022-08-16T06:41:03.738Z,68.49
2022-08-16T06:43:30.537Z,68.29
2022-08-16T06:45:57.109Z,68.13
2022-08-16T06:48:32.506Z,68.01
2022-08-16T06:51:00.064Z,68.28
2022-08-16T06:53:26.572Z,68.21
2022-08-16T06:55:59.575Z,68.00
2022-08-16T06:58:31.648Z,67.87
2022-08-16T07:01:00.547Z,67.85
2022-08-16T07:03:32.586Z,67.76
2022-08-16T07:05:59.556Z,67.96
2022-08-16T07:08:27.571Z,67.75
2022-08-16T07:10:56.517Z,67.48
2022-08-16T07:14:03.683Z,67.31
2022-08-16T07:16:15.402Z,67.46
2022-08-16T07:18:58.751Z,67.23
2022-08-16T07:21:28.103Z,67.12
2022-08-16T07:24:13.101Z,66.94
2022-08-16T07:27:00.874Z,66.59
2022-08-16T07:29:31.628Z,66.94
2022-08-16T07:31:59.577Z,66.53
2022-08-16T07:34:35.194Z,66.69
2022-08-16T07:37:11.127Z,66.14
2022-08-16T07:39:43.481Z,65.82
2022-08-16T07:42:20.260Z,65.75
2022-08-16T07:44:55.711Z,65.55
2022-08-16T07:47:24.693Z,65.51
2022-08-16T07:50:05.694Z,65.40
2022-08-16T07:52:34.812Z,65.30
2022-08-16T07:55:08.012Z,64.87
2022-08-16T07:57:38.088Z,64.79
2022-08-16T08:00:21.360Z,64.30
2022-08-16T08:02:53.481Z,63.78
2022-08-16T08:05:35.352Z,63.44
2022-08-16T08:08:03.179Z,63.22
2022-08-16T08:10:38.931Z,63.23
2022-08-16T08:13:05.651Z,62.85
2022-08-16T08:15:35.283Z,62.83
2022-08-16T08:18:30.623Z,62.59
2022-08-16T08:20:59.439Z,62.46
2022-08-16T08:23:27.578Z,62.09
2022-08-16T08:25:55.863Z,62.09
2022-08-16T08:28:23.113Z,61.62
2022-08-16T08:31:02.430Z,61.21
2022-08-16T08:33:31.404Z,60.43
2022-08-16T08:36:00.950Z,60.03
2022-08-16T08:38:44.146Z,59.71
2022-08-16T08:41:15.202Z,59.43
2022-08-16T08:43:42.905Z,59.12
2022-08-16T08:46:18.001Z,58.91
2022-08-16T08:48:58.386Z,58.54
2022-08-16T08:51:35.696Z,58.39
2022-08-16T08:54:06.975Z,57.96
2022-08-16T08:56:35.143Z,57.66
2022-08-16T08:59:12.738Z,57.02
2022-08-16T09:01:42.924Z,56.42
2022-08-16T09:04:24.419Z,56.49
2022-08-16T09:06:53.525Z,56.14
2022-08-16T09:09:20.829Z,55.84
2022-08-16T09:11:53.573Z,55.53
2022-08-16T09:14:32.132Z,55.41
2022-08-16T09:17:03.313Z,55.30
2022-08-16T09:19:40.937Z,54.87
2022-08-16T09:22:19.611Z,54.66
2022-08-16T09:24:53.328Z,54.44
2022-08-16T09:27:23.506Z,54.35
2022-08-16T09:29:59.867Z,53.40
2022-08-16T09:32:30.922Z,53.15
2022-08-16T09:35:01.091Z,52.39
2022-08-16T09:37:30.464Z,52.02
2022-08-16T09:40:31.633Z,51.44
2022-08-16T09:42:59.412Z,51.54
2022-08-16T09:45:28.820Z,50.80
2022-08-16T09:47:58.281Z,50.22
2022-08-16T09:50:36.768Z,50.23
2022-08-16T09:53:16.739Z,49.91
2022-08-16T09:55:56.843Z,49.60
2022-08-16T09:58:40.660Z,49.34
2022-08-16T10:01:13.458Z,49.07
2022-08-16T10:04:01.818Z,48.70
2022-08-16T10:06:33.933Z,48.31
2022-08-16T10:09:06.735Z,47.95
2022-08-16T10:11:56.134Z,47.86
2022-08-16T10:14:37.834Z,47.37
2022-08-16T10:17:05.939Z,47.17
2022-08-16T10:19:34.060Z,46.72
2022-08-16T10:22:05.002Z,46.50
2022-08-16T10:24:33.279Z,46.86
2022-08-16T10:27:25.229Z,46.17
2022-08-16T10:29:59.208Z,45.75
2022-08-16T10:32:30.525Z,45.68
2022-08-16T10:34:59.063Z,45.17
2022-08-16T10:37:32.570Z,45.33
2022-08-16T10:40:28.586Z,45.17
2022-08-16T10:42:55.698Z,44.68
2022-08-16T10:45:22.861Z,45.37
2022-08-16T10:48:00.910Z,45.06
2022-08-16T10:50:32.311Z,44.77
2022-08-16T10:53:00.476Z,44.33
2022-08-16T10:55:43.851Z,44.23
2022-08-16T10:58:17.017Z,43.57
2022-08-16T11:00:46.275Z,43.70
2022-08-16T11:06:03.433Z,43.56
2022-08-16T11:08:41.945Z,43.58
2022-08-16T11:11:19.182Z,43.57
2022-08-16T11:14:06.007Z,43.64
2022-08-16T11:19:22.587Z,43.57
2022-08-16T11:24:44.660Z,43.39
2022-08-16T11:27:24.109Z,42.88
2022-08-16T11:29:56.783Z,42.46
2022-08-16T11:32:31.181Z,41.89
2022-08-16T11:35:10.713Z,42.09
2022-08-16T11:40:46.953Z,40.70
2022-08-16T11:43:26.411Z,40.54
2022-08-16T11:45:56.728Z,40.33
2022-08-16T11:48:29.882Z,40.22
2022-08-16T11:50:57.509Z,40.40
2022-08-16T11:53:25.081Z,39.56
2022-08-16T11:55:55.066Z,39.12
2022-08-16T11:58:25.298Z,39.29
2022-08-16T12:00:55.189Z,39.52
2022-08-16T12:03:34.831Z,38.80
2022-08-16T12:06:25.359Z,38.93
2022-08-16T12:09:00.855Z,38.50
2022-08-16T12:11:31.327Z,38.67
2022-08-16T12:14:01.663Z,38.51
2022-08-16T12:16:34.434Z,38.66
2022-08-16T12:19:07.241Z,39.13
2022-08-16T12:21:58.420Z,39.16
2022-08-16T12:24:24.125Z,39.12
2022-08-16T12:26:51.870Z,38.82
2022-08-16T12:29:19.323Z,38.59
2022-08-16T12:32:00.593Z,38.54
2022-08-16T12:34:32.989Z,38.83
2022-08-16T12:37:03.591Z,38.75
2022-08-16T12:39:31.579Z,38.56
2022-08-16T12:41:59.111Z,38.37
2022-08-16T12:44:31.222Z,38.25
2022-08-16T12:47:17.430Z,38.18
2022-08-16T12:49:44.045Z,38.02
2022-08-16T12:52:33.791Z,37.70
2022-08-16T12:54:59.031Z,37.50
2022-08-16T12:57:25.568Z,37.14
2022-08-16T13:00:12.735Z,36.71
2022-08-16T13:02:53.946Z,36.75
2022-08-16T13:05:20.545Z,36.64
2022-08-16T13:07:51.633Z,36.15
2022-08-16T13:10:37.987Z,36.19
2022-08-16T13:13:09.106Z,36.50
2022-08-16T13:15:55.491Z,36.61
2022-08-16T13:18:34.482Z,36.69
2022-08-16T13:21:05.600Z,36.81
2022-08-16T13:23:33.778Z,36.76
2022-08-16T13:26:03.862Z,36.78
2022-08-16T13:28:30.476Z,37.00
2022-08-16T13:30:58.859Z,37.28
2022-08-16T13:33:36.791Z,36.97
2022-08-16T13:36:08.407Z,37.32
2022-08-16T13:38:49.247Z,37.36
2022-08-16T13:41:15.966Z,37.61
2022-08-16T13:43:42.956Z,37.82
2022-08-16T13:46:09.547Z,37.49
2022-08-16T13:48:44.012Z,37.85
2022-08-16T13:51:18.594Z,37.99
2022-08-16T13:53:54.232Z,38.41
2022-08-16T13:56:35.990Z,38.70
2022-08-16T13:59:14.376Z,38.91
2022-08-16T14:01:55.198Z,39.19
2022-08-16T14:04:30.023Z,39.10
2022-08-16T14:07:00.784Z,39.14
2022-08-16T14:09:30.220Z,38.89
2022-08-16T14:12:00.533Z,38.72
2022-08-16T14:14:30.032Z,38.38
2022-08-16T14:17:02.157Z,38.57
2022-08-16T14:19:30.012Z,38.84
2022-08-16T14:22:14.595Z,38.60
2022-08-16T14:24:45.217Z,38.85
2022-08-16T14:27:17.693Z,39.20
2022-08-16T14:29:48.984Z,39.33
2022-08-16T14:32:29.093Z,38.81
2022-08-16T14:35:07.350Z,39.03
2022-08-16T14:37:35.023Z,38.95
2022-08-16T14:40:03.402Z,39.66
2022-08-16T14:42:30.344Z,39.86
2022-08-16T14:44:57.575Z,39.93
2022-08-16T14:47:34.193Z,39.62
2022-08-16T14:50:02.561Z,39.81
2022-08-16T14:52:53.918Z,39.58
2022-08-16T14:55:16.285Z,38.99
2022-08-16T14:57:43.378Z,38.98
2022-08-16T15:00:14.157Z,38.82
2022-08-16T15:02:50.744Z,39.03
2022-08-16T15:05:25.641Z,39.26
2022-08-16T15:07:56.684Z,39.21
2022-08-16T15:10:29.166Z,39.17
2022-08-16T15:12:58.296Z,39.09
2022-08-16T15:15:30.220Z,38.77
2022-08-16T15:17:57.618Z,38.64
2022-08-16T15:20:32.563Z,37.88
2022-08-16T15:23:03.085Z,37.86
2022-08-16T15:25:44.739Z,37.51
2022-08-16T15:28:30.490Z,37.48
2022-08-16T15:31:03.485Z,37.84
2022-08-16T15:33:35.274Z,38.24
2022-08-16T15:36:04.564Z,37.64
2022-08-16T15:39:03.043Z,37.81
2022-08-16T15:42:05.310Z,37.47
2022-08-16T15:44:51.422Z,37.79
2022-08-16T15:47:25.808Z,37.50
2022-08-16T15:49:55.505Z,37.75
2022-08-16T15:52:32.806Z,37.85
2022-08-16T15:55:12.773Z,37.61
2022-08-16T15:57:51.373Z,37.99
2022-08-16T16:00:20.573Z,37.82
2022-08-16T16:02:49.589Z,37.13
2022-08-16T16:05:16.963Z,37.24
2022-08-16T16:07:56.842Z,37.06
2022-08-16T16:10:31.655Z,37.15
2022-08-16T16:13:03.759Z,37.34
2022-08-16T16:15:36.939Z,37.23
2022-08-16T16:18:09.855Z,36.74
2022-08-16T16:20:46.506Z,36.99
2022-08-16T16:23:17.444Z,36.99
2022-08-16T16:25:47.567Z,36.41
2022-08-16T16:29:06.376Z,35.83
2022-08-16T16:31:13.358Z,36.17
2022-08-16T16:33:43.376Z,36.67
2022-08-16T16:36:14.615Z,36.80
2022-08-16T16:38:45.524Z,36.62
2022-08-16T16:41:14.165Z,36.90
2022-08-16T16:43:44.619Z,36.93
2022-08-16T16:46:40.388Z,36.71
2022-08-16T16:49:08.415Z,37.13
2022-08-16T16:51:44.966Z,37.03
2022-08-16T16:54:27.826Z,37.22
2022-08-16T16:56:57.054Z,37.58
2022-08-16T16:59:25.541Z,37.57
2022-08-16T17:02:00.193Z,37.64
2022-08-16T17:04:41.465Z,37.73
2022-08-16T17:07:10.984Z,37.72
2022-08-16T17:09:41.099Z,37.87
2022-08-16T17:12:10.098Z,38.17
2022-08-16T17:14:42.754Z,38.20
2022-08-16T17:17:11.509Z,38.32
2022-08-16T17:19:41.803Z,38.27
2022-08-16T17:22:16.392Z,38.22
2022-08-16T17:27:39.752Z,38.58
2022-08-16T17:30:15.078Z,38.91
2022-08-16T17:32:54.363Z,39.01
2022-08-16T17:35:39.151Z,39.03
2022-08-16T17:38:09.600Z,39.31
2022-08-16T17:39:28.284Z,38.22
2022-08-16T17:40:59.233Z,39.53
2022-08-16T17:43:44.487Z,39.22
2022-08-16T17:46:51.082Z,39.18
2022-08-16T17:49:01.237Z,39.27
2022-08-16T17:51:28.540Z,39.14
2022-08-16T17:53:55.567Z,39.39
2022-08-16T17:56:22.705Z,39.47
2022-08-16T17:58:49.550Z,39.53
2022-08-16T18:01:18.136Z,39.88
2022-08-16T18:04:06.996Z,40.14
2022-08-16T18:06:31.076Z,40.78
2022-08-16T18:09:03.587Z,40.63
2022-08-16T18:11:33.704Z,40.82
2022-08-16T18:14:00.447Z,41.01
2022-08-16T18:16:27.045Z,41.10
2022-08-16T18:18:53.656Z,41.39
2022-08-16T18:21:38.455Z,41.33
2022-08-16T18:24:05.413Z,41.22
2022-08-16T18:26:31.977Z,41.62
2022-08-16T18:28:58.574Z,41.63
2022-08-16T18:31:25.338Z,41.64
2022-08-16T18:33:55.753Z,42.14
2022-08-16T18:36:25.277Z,42.41
2022-08-16T18:38:53.824Z,42.39
2022-08-16T18:41:23.715Z,42.26
2022-08-16T18:43:59.217Z,42.65
2022-08-16T18:46:43.169Z,42.93
2022-08-16T18:49:11.498Z,43.14
2022-08-16T18:51:42.579Z,43.09
2022-08-16T18:54:11.958Z,43.54
2022-08-16T18:56:57.110Z,43.69
2022-08-16T18:59:30.383Z,43.63
2022-08-16T19:02:04.472Z,43.97
2022-08-16T19:04:56.956Z,44.21
2022-08-16T19:07:30.971Z,44.52
2022-08-16T19:10:02.060Z,44.79
2022-08-16T19:12:38.343Z,45.14
2022-08-16T19:15:15.934Z,45.36
2022-08-16T19:17:44.156Z,45.43
2022-08-16T19:20:13.467Z,45.48
2022-08-16T19:25:48.552Z,45.84
2022-08-16T19:28:49.597Z,46.32
2022-08-16T19:31:30.432Z,47.15
2022-08-16T19:33:58.029Z,47.00
2022-08-16T19:36:37.786Z,47.16
2022-08-16T19:39:15.095Z,46.98
2022-08-16T19:41:46.297Z,47.14
2022-08-16T19:44:19.836Z,47.52
2022-08-16T19:46:48.579Z,47.69
2022-08-16T19:49:16.559Z,47.74
2022-08-16T19:51:47.803Z,47.82
2022-08-16T19:54:15.378Z,47.98
2022-08-16T19:56:41.931Z,48.41
2022-08-16T19:59:40.358Z,48.42
2022-08-16T20:01:55.457Z,48.78
2022-08-16T20:04:23.767Z,48.93
2022-08-16T20:06:54.683Z,48.77
2022-08-16T20:09:23.382Z,49.01
2022-08-16T20:11:52.661Z,49.13
2022-08-16T20:14:25.370Z,49.60
2022-08-16T20:16:59.363Z,49.83
2022-08-16T20:19:33.436Z,50.24
2022-08-16T20:22:52.370Z,50.46
2022-08-16T20:25:31.581Z,50.86
2022-08-16T20:28:00.809Z,50.94
2022-08-16T20:30:28.388Z,51.10
2022-08-16T20:32:55.568Z,51.25
2022-08-16T20:35:26.208Z,51.26
2022-08-16T20:37:53.796Z,51.81
2022-08-16T20:40:34.228Z,51.73
2022-08-16T20:43:13.622Z,52.37
2022-08-16T20:45:43.627Z,51.80
2022-08-16T20:48:11.169Z,52.20
2022-08-16T20:50:38.647Z,52.63
2022-08-16T20:53:06.429Z,52.29
2022-08-16T20:55:40.296Z,52.31
2022-08-16T20:58:07.278Z,52.46
2022-08-16T21:00:33.983Z,52.75
2022-08-16T21:03:05.467Z,52.97
2022-08-16T21:05:32.115Z,53.46
2022-08-16T21:07:59.897Z,53.32
2022-08-16T21:10:27.030Z,53.28
2022-08-16T21:13:03.477Z,53.50
2022-08-16T21:15:32.825Z,53.35
2022-08-16T21:18:00.980Z,53.77
2022-08-16T21:20:29.168Z,53.99
2022-08-16T21:23:00.910Z,54.16
2022-08-16T21:25:29.096Z,54.27
2022-08-16T21:28:40.193Z,54.32
2022-08-16T21:30:44.648Z,54.61
2022-08-16T21:33:16.780Z,54.81
2022-08-16T21:35:47.514Z,54.85
2022-08-16T21:38:29.068Z,55.21
2022-08-16T21:40:59.291Z,55.51
2022-08-16T21:43:28.639Z,55.50
2022-08-16T21:45:55.994Z,55.71
2022-08-16T21:48:35.836Z,55.76
2022-08-16T21:51:09.943Z,56.23
2022-08-16T21:53:37.840Z,55.99
2022-08-16T21:56:06.344Z,56.07
2022-08-16T21:58:33.264Z,56.30
2022-08-16T22:01:02.345Z,56.35
2022-08-16T22:03:32.923Z,56.51
2022-08-16T22:06:11.986Z,56.65
2022-08-16T22:08:50.347Z,56.68
2022-08-16T22:11:23.840Z,56.38
2022-08-16T22:13:57.997Z,56.26
2022-08-16T22:16:31.325Z,56.10
2022-08-16T22:18:58.081Z,55.96
2022-08-16T22:21:25.072Z,56.65
2022-08-16T22:23:56.650Z,56.57
2022-08-16T22:26:32.199Z,57.32
2022-08-16T22:29:06.639Z,57.15
2022-08-16T22:31:34.438Z,57.04
2022-08-16T22:34:02.348Z,57.55
2022-08-16T22:36:31.023Z,57.30
2022-08-16T22:39:00.291Z,57.22
2022-08-16T22:41:30.759Z,57.10
2022-08-16T22:43:58.493Z,57.52
2022-08-16T22:46:25.114Z,57.93
2022-08-16T22:48:51.725Z,57.74
2022-08-16T22:51:21.973Z,57.64
2022-08-16T22:53:49.653Z,58.08
2022-08-16T22:56:17.364Z,58.16
2022-08-16T22:58:45.462Z,58.38
2022-08-16T23:01:15.082Z,58.46
2022-08-16T23:03:42.541Z,58.73
2022-08-16T23:06:12.216Z,58.73
2022-08-16T23:08:41.442Z,58.85
2022-08-16T23:11:19.940Z,59.00
2022-08-16T23:13:52.976Z,59.02
2022-08-16T23:16:32.624Z,58.82
2022-08-16T23:19:06.441Z,58.64
2022-08-16T23:21:35.296Z,59.05
2022-08-16T23:24:02.528Z,59.11
2022-08-16T23:26:44.813Z,58.94
2022-08-16T23:29:24.501Z,59.08
2022-08-16T23:32:10.719Z,59.45
2022-08-16T23:34:37.378Z,59.36
2022-08-16T23:37:04.934Z,59.85
2022-08-16T23:39:31.499Z,59.98
2022-08-16T23:41:58.731Z,59.78
2022-08-16T23:44:55.267Z,59.75
2022-08-16T23:47:11.848Z,59.96
2022-08-16T23:50:01.988Z,60.04
2022-08-16T23:52:53.176Z,60.13
2022-08-16T23:55:12.618Z,60.40
2022-08-16T23:57:39.118Z,60.26
